createdAt,value
2019-05-09T14:19:29.189Z,0.40
2019-05-09T15:51:43.628Z,0.30
2019-05-09T15:54:01.819Z,0.50
2019-05-09T15:54:46.935Z,0.50
2019-05-09T15:55:47.886Z,0.40
2019-05-09T15:56:50.990Z,0.40
2019-05-09T15:57:48.422Z,0.30
2019-05-09T15:58:44.287Z,0.70
2019-05-09T16:00:13.444Z,0.30
2019-05-09T16:00:53.440Z,0.30
2019-05-09T16:05:40.116Z,0.30
2019-05-09T16:06:53.989Z,0.40
2019-05-09T16:07:53.639Z,0.50
2019-05-09T16:08:52.782Z,0.40
2019-05-09T16:09:41.485Z,0.30
2019-05-09T16:10:40.199Z,0.30
2019-05-09T16:12:02.489Z,0.40
2019-05-09T16:12:45.132Z,0.60
2019-05-09T16:13:48.106Z,0.50
2019-05-09T16:14:45.055Z,0.20
2019-05-09T16:15:41.976Z,0.40
2019-05-09T16:16:41.510Z,0.40
2019-05-09T16:17:43.658Z,0.60
2019-05-09T16:18:39.692Z,0.40
2019-05-09T16:19:52.807Z,0.30
2019-05-09T16:20:41.133Z,0.20
2019-05-09T16:21:38.296Z,0.50
2019-05-09T16:22:39.057Z,0.30
2019-05-09T16:23:38.058Z,0.40
2019-05-09T16:24:44.532Z,0.50
2019-05-09T16:25:38.719Z,0.50
2019-05-09T16:26:38.276Z,0.50
2019-05-09T16:27:37.878Z,0.40
2019-05-09T16:28:37.944Z,0.40
2019-05-09T16:29:38.324Z,0.30
2019-05-09T16:30:38.324Z,0.20
2019-05-09T16:31:38.791Z,0.30
2019-05-09T16:32:37.713Z,0.30
2019-05-09T16:33:36.383Z,0.60
2019-05-09T16:34:38.707Z,0.50
2019-05-09T16:35:38.126Z,0.40
2019-05-09T16:36:38.728Z,0.70
2019-05-09T16:37:57.414Z,0.30
2019-05-09T16:38:45.005Z,0.20
2019-05-09T16:39:37.852Z,0.50
2019-05-09T16:40:38.670Z,0.50
2019-05-09T16:41:39.286Z,0.40
2019-05-09T16:42:38.170Z,0.30
2019-05-09T16:43:38.591Z,0.30
2019-05-09T16:44:37.792Z,0.40
2019-05-09T16:45:37.890Z,0.20
2019-05-09T16:46:37.607Z,0.40
2019-05-09T16:47:37.248Z,0.30
2019-05-09T16:48:37.075Z,0.60
2019-05-09T16:49:38.502Z,0.30
2019-05-09T16:50:50.155Z,0.30
2019-05-09T16:51:40.791Z,0.30
2019-05-09T16:52:43.071Z,0.50
2019-05-09T16:53:37.672Z,0.30
2019-05-09T16:54:38.615Z,0.40
2019-05-09T16:55:38.084Z,0.20
2019-05-09T16:56:38.181Z,0.30
2019-05-09T16:57:37.686Z,0.40
2019-05-09T16:58:37.925Z,0.40
2019-05-09T16:59:38.638Z,0.20
2019-05-09T17:00:38.145Z,0.30
2019-05-09T17:01:38.740Z,0.20
2019-05-09T17:02:38.099Z,0.20
2019-05-09T17:03:36.053Z,0.40
2019-05-09T17:04:38.503Z,0.30
2019-05-09T17:05:37.448Z,0.20
2019-05-09T17:06:38.157Z,0.20
2019-05-09T17:07:38.221Z,0.20
2019-05-09T17:08:38.444Z,0.30
2019-05-09T17:09:37.725Z,0.40
2019-05-09T17:10:35.958Z,0.30
2019-05-09T17:11:35.981Z,0.30
2019-05-09T17:12:36.564Z,0.20
2019-05-09T17:13:36.140Z,0.30
2019-05-09T17:14:35.915Z,0.30
2019-05-09T17:15:38.729Z,0.20
2019-05-09T17:16:37.668Z,0.40
2019-05-09T17:17:38.223Z,0.40
2019-05-09T17:18:38.142Z,0.20
2019-05-09T17:19:37.773Z,0.20
2019-05-09T17:20:37.835Z,0.20
2019-05-09T17:21:37.677Z,0.30
2019-05-09T17:22:38.116Z,0.30
2019-05-09T17:23:36.389Z,0.30
2019-05-09T17:24:37.375Z,0.40
2019-05-09T17:25:38.299Z,0.20
2019-05-09T17:26:37.915Z,0.20
2019-05-09T17:27:35.776Z,0.20
2019-05-09T17:28:37.634Z,0.20
2019-05-09T17:29:38.103Z,0.30
2019-05-09T17:30:38.077Z,0.60
2019-05-09T17:31:38.158Z,0.30
2019-05-09T17:32:37.840Z,0.20
2019-05-09T17:33:37.795Z,0.30
2019-05-09T17:34:37.926Z,0.30
2019-05-09T17:35:35.669Z,0.30
2019-05-09T17:36:35.677Z,0.40
2019-05-09T17:37:37.959Z,0.20
2019-05-09T17:38:35.631Z,0.30
2019-05-09T17:39:38.435Z,0.20
2019-05-09T17:40:35.632Z,0.20
2019-05-09T17:41:37.762Z,0.30
2019-05-09T17:42:38.032Z,0.30
2019-05-09T17:43:35.580Z,0.20
2019-05-09T17:44:35.566Z,0.40
2019-05-09T17:45:39.346Z,0.20
2019-05-09T17:46:38.472Z,0.40
2019-05-09T17:47:37.603Z,0.30
2019-05-09T17:48:35.559Z,0.30
2019-05-09T17:49:37.466Z,0.20
2019-05-09T17:50:38.096Z,0.30
2019-05-09T17:51:36.470Z,0.20
2019-05-09T17:52:35.468Z,0.20
2019-05-09T17:53:35.481Z,0.40
2019-05-09T17:54:37.389Z,0.20
2019-05-09T17:55:37.893Z,0.20
2019-05-09T17:56:37.671Z,0.20
2019-05-09T17:57:35.449Z,0.30
2019-05-09T17:58:37.841Z,0.40
2019-05-09T17:59:35.428Z,0.20
2019-05-09T18:00:37.760Z,0.30
2019-05-09T18:01:35.384Z,0.20
2019-05-09T18:02:35.361Z,0.20
2019-05-09T18:03:38.206Z,0.20
2019-05-09T18:04:37.726Z,0.30
2019-05-09T18:05:35.926Z,0.30
2019-05-09T18:06:37.722Z,0.20
2019-05-09T18:07:37.551Z,0.20
2019-05-09T18:08:37.578Z,0.30
2019-05-09T18:09:35.297Z,0.20
2019-05-09T18:10:37.777Z,0.20
2019-05-09T18:11:37.556Z,0.30
2019-05-09T18:12:35.249Z,0.20
2019-05-09T18:13:35.261Z,0.30
2019-05-09T18:14:35.296Z,0.30
2019-05-09T18:15:37.549Z,0.30
2019-05-09T18:16:35.217Z,0.30
2019-05-09T18:17:35.209Z,0.50
2019-05-09T18:18:35.170Z,0.20
2019-05-09T18:19:35.234Z,0.40
2019-05-09T18:20:37.718Z,0.30
2019-05-09T18:21:49.615Z,0.30
2019-05-09T18:22:36.140Z,0.30
2019-05-09T18:23:35.136Z,0.30
2019-05-09T18:24:37.555Z,0.10
2019-05-09T18:25:37.089Z,0.40
2019-05-09T18:26:35.102Z,0.20
2019-05-09T18:27:35.117Z,0.50
2019-05-09T18:28:42.739Z,0.20
2019-05-09T18:29:42.634Z,0.20
2019-05-09T18:30:44.204Z,0.30
2019-05-09T18:31:37.316Z,0.20
2019-05-09T18:32:35.030Z,0.30
2019-05-09T18:33:35.010Z,0.20
2019-05-09T18:34:34.992Z,0.20
2019-05-09T18:35:34.989Z,0.30
2019-05-09T18:36:35.050Z,0.30
2019-05-09T18:37:37.158Z,0.30
2019-05-09T18:38:34.975Z,0.30
2019-05-09T18:39:37.337Z,0.40
2019-05-09T18:40:34.940Z,0.20
2019-05-09T18:41:34.936Z,0.30
2019-05-09T18:42:34.995Z,0.20
2019-05-09T18:43:35.001Z,0.40
2019-05-09T18:44:34.887Z,0.30
2019-05-09T18:45:37.384Z,0.20
2019-05-09T18:46:34.875Z,0.30
2019-05-09T18:47:34.922Z,0.20
2019-05-09T18:48:35.005Z,0.30
2019-05-09T18:49:34.884Z,0.30
2019-05-09T18:50:34.874Z,0.30
2019-05-09T18:51:34.806Z,0.20
2019-05-09T18:52:34.960Z,0.20
2019-05-09T18:53:34.784Z,0.30
2019-05-09T18:54:34.826Z,0.20
2019-05-09T18:55:34.782Z,0.30
2019-05-09T18:56:34.767Z,0.20
2019-05-09T18:57:34.741Z,0.40
2019-05-09T18:58:36.091Z,0.30
2019-05-09T18:59:34.724Z,0.30
2019-05-09T19:00:34.738Z,0.20
2019-05-09T19:01:34.697Z,0.40
2019-05-09T19:02:34.789Z,0.20
2019-05-09T19:03:34.680Z,0.40
2019-05-09T19:04:34.710Z,0.30
2019-05-09T19:05:34.655Z,0.30
2019-05-09T19:06:34.647Z,0.40
2019-05-09T19:07:34.619Z,0.30
2019-05-09T19:08:34.620Z,0.70
2019-05-09T19:09:34.697Z,0.20
2019-05-09T19:10:34.611Z,0.90
2019-05-09T19:11:34.689Z,0.30
2019-05-09T19:12:34.569Z,0.30
2019-05-09T19:13:34.601Z,0.30
2019-05-09T19:14:34.543Z,0.40
2019-05-09T19:15:34.561Z,0.40
2019-05-09T19:16:34.534Z,0.50
2019-05-09T19:17:34.521Z,0.40
2019-05-09T19:18:34.509Z,0.30
2019-05-09T19:19:34.482Z,0.40
2019-05-09T19:20:34.523Z,0.30
2019-05-09T19:21:34.512Z,0.20
2019-05-09T19:22:34.453Z,0.30
2019-05-09T19:23:34.449Z,0.20
2019-05-09T19:24:34.433Z,0.30
2019-05-09T19:25:34.444Z,0.50
2019-05-09T19:26:34.473Z,0.30
2019-05-09T19:27:34.395Z,0.30
2019-05-09T19:28:34.402Z,0.30
2019-05-09T19:29:34.382Z,0.70
2019-05-09T19:30:34.373Z,0.20
2019-05-09T19:31:34.346Z,0.10
2019-05-09T19:32:34.416Z,0.10
2019-05-09T19:33:34.324Z,0.20
2019-05-09T19:34:34.343Z,0.30
2019-05-09T19:35:34.330Z,0.40
2019-05-09T19:36:34.325Z,0.10
2019-05-09T19:37:34.321Z,0.20
2019-05-09T19:38:34.291Z,0.20
2019-05-09T19:39:34.254Z,0.30
2019-05-09T19:40:34.286Z,0.20
2019-05-09T19:41:34.249Z,0.30
2019-05-09T19:42:34.256Z,0.30
2019-05-09T19:43:34.217Z,0.30
2019-05-09T19:44:34.221Z,0.20
2019-05-09T19:45:34.247Z,0.50
2019-05-09T19:46:34.186Z,0.50
2019-05-09T19:47:34.172Z,0.30
2019-05-09T19:48:34.160Z,0.30
2019-05-09T19:49:34.221Z,0.40
2019-05-09T19:50:34.163Z,0.40
2019-05-09T19:51:34.124Z,0.30
2019-05-09T19:52:38.210Z,0.20
2019-05-09T19:53:34.131Z,0.30
2019-05-09T19:54:34.120Z,0.30
2019-05-09T19:55:34.092Z,0.30
2019-05-09T19:56:34.076Z,0.30
2019-05-09T19:57:34.056Z,0.40
2019-05-09T19:58:34.050Z,0.20
2019-05-09T19:59:34.064Z,0.50
2019-05-09T20:00:34.081Z,0.30
2019-05-09T20:01:34.047Z,0.30
2019-05-09T20:02:34.008Z,0.30
2019-05-09T20:03:34.000Z,0.30
2019-05-09T20:04:33.979Z,0.30
2019-05-09T20:05:33.983Z,0.40
2019-05-09T20:06:33.953Z,0.40
2019-05-09T20:07:33.962Z,0.30
2019-05-09T20:08:34.455Z,0.20
2019-05-09T20:09:33.966Z,0.20
2019-05-09T20:10:33.910Z,0.40
2019-05-09T20:11:33.919Z,0.40
2019-05-09T20:12:33.917Z,0.50
2019-05-09T20:13:33.910Z,1.10
2019-05-09T20:14:33.854Z,2.00
2019-05-09T20:15:33.886Z,1.60
2019-05-09T20:16:33.846Z,2.20
2019-05-09T20:17:33.852Z,2.40
2019-05-09T20:18:33.815Z,1.80
2019-05-09T20:19:33.804Z,1.20
2019-05-09T20:20:33.835Z,1.10
2019-05-09T20:21:33.841Z,0.80
2019-05-09T20:22:33.769Z,0.70
2019-05-09T20:23:33.755Z,0.80
2019-05-09T20:24:33.753Z,0.80
2019-05-09T20:25:33.765Z,0.70
2019-05-09T20:26:33.745Z,0.80
2019-05-09T20:27:33.728Z,0.60
2019-05-09T20:28:33.703Z,0.50
2019-05-09T20:29:33.704Z,0.70
2019-05-09T20:30:33.679Z,0.70
2019-05-09T20:31:33.677Z,1.00
2019-05-09T20:32:33.693Z,1.20
2019-05-09T20:33:33.640Z,0.90
2019-05-09T20:34:33.689Z,1.00
2019-05-09T20:35:33.629Z,1.20
2019-05-09T20:36:33.674Z,1.20
2019-05-09T20:37:33.622Z,0.90
2019-05-09T20:38:33.618Z,0.80
2019-05-09T20:39:33.576Z,0.90
2019-05-09T20:40:33.561Z,1.20
2019-05-09T20:41:33.553Z,1.20
2019-05-09T20:42:33.566Z,1.80
2019-05-09T20:43:33.536Z,1.40
2019-05-09T20:44:33.546Z,1.20
2019-05-09T20:45:33.505Z,1.00
2019-05-09T20:46:33.499Z,0.90
2019-05-09T20:47:33.496Z,0.90
2019-05-09T20:48:33.471Z,1.00
2019-05-09T20:49:33.470Z,0.80
2019-05-09T20:50:33.457Z,0.90
2019-05-09T20:51:33.447Z,1.00
2019-05-09T20:52:33.446Z,1.10
2019-05-09T20:53:33.414Z,1.10
2019-05-09T20:54:33.406Z,0.90
2019-05-09T20:55:33.395Z,0.80
2019-05-09T20:56:34.149Z,0.90
2019-05-09T20:57:33.524Z,0.70
2019-05-09T20:58:34.111Z,0.50
2019-05-09T20:59:33.349Z,0.80
2019-05-09T21:00:33.482Z,0.60
2019-05-09T21:01:34.104Z,0.70
2019-05-09T21:02:33.314Z,0.40
2019-05-09T21:03:33.328Z,0.50
2019-05-09T21:04:33.304Z,0.60
2019-05-09T21:05:33.306Z,0.50
2019-05-09T21:06:34.114Z,0.60
2019-05-09T21:07:33.298Z,0.60
2019-05-09T21:08:33.298Z,0.70
2019-05-09T21:09:33.646Z,0.70
2019-05-09T21:10:33.260Z,0.50
2019-05-09T21:11:33.228Z,0.60
2019-05-09T21:12:33.305Z,0.50
2019-05-09T21:13:47.354Z,0.50
2019-05-09T21:14:35.117Z,0.40
2019-05-09T21:15:33.174Z,0.50
2019-05-09T21:16:33.178Z,0.50
2019-05-09T21:17:33.260Z,0.40
2019-05-09T21:18:33.175Z,0.50
2019-05-09T21:19:33.125Z,0.60
2019-05-09T21:20:33.107Z,0.30
2019-05-09T21:21:33.120Z,0.40
2019-05-09T21:22:35.719Z,0.50
2019-05-09T21:23:33.613Z,0.40
2019-05-09T21:24:33.608Z,0.50
2019-05-09T21:25:33.719Z,0.60
2019-05-09T21:26:33.802Z,0.70
2019-05-09T21:27:33.035Z,0.30
2019-05-09T21:28:33.020Z,0.50
2019-05-09T21:29:34.327Z,0.30
2019-05-09T21:30:33.011Z,0.60
2019-05-09T21:31:33.004Z,0.40
2019-05-09T21:32:35.605Z,0.50
2019-05-09T21:33:35.612Z,0.70
2019-05-09T21:34:33.031Z,0.80
2019-05-09T21:35:33.137Z,0.50
2019-05-09T21:36:32.929Z,0.50
2019-05-09T21:37:32.921Z,0.20
2019-05-09T21:38:33.600Z,0.60
2019-05-09T21:39:32.926Z,0.40
2019-05-09T21:40:32.901Z,0.60
2019-05-09T21:41:33.125Z,0.40
2019-05-09T21:42:33.016Z,0.50
2019-05-09T21:43:32.852Z,0.40
2019-05-09T21:44:32.838Z,0.50
2019-05-09T21:45:32.826Z,0.40
2019-05-09T21:46:32.908Z,0.30
2019-05-09T21:47:32.959Z,0.40
2019-05-09T21:48:32.801Z,0.40
2019-05-09T21:49:32.792Z,0.30
2019-05-09T21:50:32.775Z,0.20
2019-05-09T21:51:32.758Z,0.30
2019-05-09T21:52:32.780Z,0.40
2019-05-09T21:53:41.106Z,0.40
2019-05-09T21:54:34.623Z,0.40
2019-05-09T21:55:32.712Z,0.40
2019-05-09T21:56:33.609Z,0.40
2019-05-09T21:57:32.941Z,0.20
2019-05-09T21:58:32.680Z,0.30
2019-05-09T21:59:32.672Z,0.40
2019-05-09T22:00:32.709Z,0.30
2019-05-09T22:01:33.602Z,0.40
2019-05-09T22:02:32.644Z,0.30
2019-05-09T22:03:32.784Z,0.30
2019-05-09T22:04:32.645Z,0.50
2019-05-09T22:05:32.611Z,0.30
2019-05-09T22:06:32.591Z,0.40
2019-05-09T22:07:32.579Z,0.60
2019-05-09T22:08:32.588Z,0.40
2019-05-09T22:09:32.646Z,0.30
2019-05-09T22:10:32.623Z,0.40
2019-05-09T22:11:32.537Z,0.30
2019-05-09T22:12:33.103Z,0.40
2019-05-09T22:13:32.511Z,0.30
2019-05-09T22:14:32.528Z,0.40
2019-05-09T22:15:32.613Z,0.40
2019-05-09T22:16:32.504Z,0.40
2019-05-09T22:17:32.479Z,0.50
2019-05-09T22:18:33.098Z,0.40
2019-05-09T22:19:32.447Z,0.40
2019-05-09T22:20:32.460Z,0.30
2019-05-09T22:21:32.418Z,0.30
2019-05-09T22:22:32.454Z,0.50
2019-05-09T22:23:32.395Z,0.40
2019-05-09T22:24:32.405Z,0.40
2019-05-09T22:25:32.396Z,0.50
2019-05-09T22:26:32.746Z,0.40
2019-05-09T22:27:32.379Z,0.50
2019-05-09T22:28:32.350Z,0.50
2019-05-09T22:29:33.099Z,0.40
2019-05-09T22:30:32.320Z,0.60
2019-05-09T22:31:32.655Z,0.40
2019-05-09T22:32:32.294Z,0.60
2019-05-09T22:33:32.284Z,0.50
2019-05-09T22:34:32.289Z,0.30
2019-05-09T22:35:33.145Z,0.50
2019-05-09T22:36:32.253Z,0.40
2019-05-09T22:37:32.641Z,0.40
2019-05-09T22:38:32.232Z,0.50
2019-05-09T22:39:32.220Z,0.50
2019-05-09T22:40:32.205Z,0.30
2019-05-09T22:41:32.193Z,0.50
2019-05-09T22:42:32.226Z,0.50
2019-05-09T22:43:33.096Z,0.30
2019-05-09T22:44:32.243Z,0.40
2019-05-09T22:45:32.151Z,0.30
2019-05-09T22:46:32.168Z,0.40
2019-05-09T22:47:32.134Z,0.40
2019-05-09T22:48:32.145Z,0.30
2019-05-09T22:49:32.107Z,0.30
2019-05-09T22:50:32.091Z,0.40
2019-05-09T22:51:32.114Z,0.30
2019-05-09T22:52:32.649Z,0.40
2019-05-09T22:53:32.071Z,0.80
2019-05-09T22:54:32.071Z,0.30
2019-05-09T22:55:32.034Z,0.50
2019-05-09T22:56:33.057Z,0.40
2019-05-09T22:57:32.042Z,0.40
2019-05-09T22:58:32.001Z,0.30
2019-05-09T22:59:31.997Z,0.40
2019-05-09T23:00:32.081Z,0.50
2019-05-09T23:01:31.970Z,0.50
2019-05-09T23:02:31.961Z,0.30
2019-05-09T23:03:31.948Z,0.30
2019-05-09T23:04:32.089Z,0.30
2019-05-09T23:05:31.920Z,0.30
2019-05-09T23:06:31.982Z,0.40
2019-05-09T23:07:31.900Z,0.30
2019-05-09T23:08:31.978Z,0.40
2019-05-09T23:09:32.594Z,0.40
2019-05-09T23:10:32.646Z,0.30
2019-05-09T23:11:31.867Z,0.20
2019-05-09T23:12:31.875Z,0.40
2019-05-09T23:13:32.121Z,0.50
2019-05-09T23:14:31.922Z,0.20
2019-05-09T23:15:31.918Z,0.40
2019-05-09T23:16:32.595Z,0.30
2019-05-09T23:17:31.783Z,0.40
2019-05-09T23:18:31.812Z,0.50
2019-05-09T23:19:31.767Z,0.30
2019-05-09T23:20:32.597Z,0.40
2019-05-09T23:21:31.749Z,0.50
2019-05-09T23:22:32.709Z,0.30
2019-05-09T23:23:32.613Z,0.50
2019-05-09T23:24:31.729Z,0.40
2019-05-09T23:25:31.692Z,0.40
2019-05-09T23:26:31.830Z,0.40
2019-05-09T23:27:31.719Z,0.40
2019-05-09T23:28:31.668Z,0.30
2019-05-09T23:29:31.649Z,0.40
2019-05-09T23:30:31.647Z,0.30
2019-05-09T23:31:31.724Z,0.30
2019-05-09T23:32:31.618Z,0.40
2019-05-09T23:33:31.618Z,0.20
2019-05-09T23:34:31.605Z,0.30
2019-05-09T23:35:31.584Z,0.50
2019-05-09T23:36:31.592Z,0.40
2019-05-09T23:37:31.633Z,0.40
2019-05-09T23:38:31.556Z,0.40
2019-05-09T23:39:31.573Z,0.40
2019-05-09T23:40:31.552Z,0.20
2019-05-09T23:41:31.511Z,0.30
2019-05-09T23:42:31.499Z,0.20
2019-05-09T23:43:31.533Z,0.30
2019-05-09T23:44:31.481Z,0.40
2019-05-09T23:45:31.469Z,0.30
2019-05-09T23:46:31.474Z,0.30
2019-05-09T23:47:38.091Z,0.40
2019-05-09T23:48:31.595Z,0.20
2019-05-09T23:49:31.527Z,0.60
2019-05-09T23:50:32.103Z,0.30
2019-05-09T23:51:31.413Z,0.30
2019-05-09T23:52:31.390Z,0.30
2019-05-09T23:53:31.382Z,0.30
2019-05-09T23:54:44.575Z,0.40
2019-05-09T23:55:32.367Z,0.40
2019-05-09T23:56:31.360Z,0.30
2019-05-09T23:57:31.330Z,0.30
2019-05-09T23:58:38.091Z,0.40
2019-05-09T23:59:32.128Z,0.30
